Time;durP1;ratioP1;P1;durP2;ratioP2;P2;SDS_P1;SDS_P2;PMS_P1;PMS_P2;Temp;Humidity;BMP_temperature;BMP_pressure;BME280_temperature;BME280_humidity;BME280_pressure;Samples;Min_cycle;Max_cycle;Signal;HPM_P1;HPM_P2
2023/06/08 00:00:06;;;;;;;9.25;7.38;;;11.00;99.90;;;;;;5048219;28;20025;-70
2023/06/08 00:02:32;;;;;;;9.80;8.13;;;11.00;99.90;;;;;;5048965;28;20087;-69
2023/06/08 00:05:02;;;;;;;11.02;8.40;;;11.00;99.90;;;;;;5048437;28;20524;-70
2023/06/08 00:07:29;;;;;;;13.57;8.43;;;11.00;99.90;;;;;;5049437;28;20503;-70
2023/06/08 00:09:55;;;;;;;14.07;8.85;;;11.00;99.90;;;;;;5050962;28;20085;-70
2023/06/08 00:12:21;;;;;;;11.50;8.10;;;10.90;99.90;;;;;;5053022;28;20033;-70
2023/06/08 00:14:47;;;;;;;10.55;8.75;;;10.90;99.90;;;;;;5052106;28;20033;-70
2023/06/08 00:17:13;;;;;;;11.40;9.07;;;10.90;99.90;;;;;;5052415;28;20331;-70
2023/06/08 00:19:39;;;;;;;11.82;8.15;;;10.90;99.90;;;;;;5052778;28;20039;-70
2023/06/08 00:22:07;;;;;;;9.60;7.28;;;10.90;99.90;;;;;;5052496;28;20397;-70
2023/06/08 00:24:35;;;;;;;12.02;8.38;;;10.90;99.90;;;;;;5052688;28;20074;-69
2023/06/08 00:27:01;;;;;;;10.98;8.48;;;10.90;99.90;;;;;;5051674;28;20094;-70
2023/06/08 00:29:27;;;;;;;11.13;8.43;;;11.00;99.90;;;;;;5052464;28;20456;-70
2023/06/08 00:31:53;;;;;;;11.43;9.45;;;11.00;99.90;;;;;;5051901;28;20028;-70
2023/06/08 00:34:20;;;;;;;14.00;9.52;;;10.90;99.90;;;;;;5052129;28;20040;-70
2023/06/08 00:36:46;;;;;;;10.88;8.50;;;10.90;99.90;;;;;;5052038;28;20033;-69
2023/06/08 00:39:12;;;;;;;13.30;9.00;;;10.80;99.90;;;;;;5052542;28;20070;-69
2023/06/08 00:41:38;;;;;;;10.23;8.52;;;10.80;99.90;;;;;;5052140;28;20021;-69
2023/06/08 00:44:08;;;;;;;10.82;8.93;;;10.80;99.90;;;;;;5051336;28;20106;-70
2023/06/08 00:46:35;;;;;;;10.95;8.80;;;10.80;99.90;;;;;;5051782;28;20431;-70
2023/06/08 00:49:01;;;;;;;9.70;8.30;;;10.70;99.90;;;;;;5051583;28;20029;-70
2023/06/08 00:51:32;;;;;;;8.30;7.45;;;10.70;99.90;;;;;;5052007;28;20108;-70
2023/06/08 00:53:58;;;;;;;10.90;8.68;;;10.70;99.90;;;;;;5051457;28;20027;-69
2023/06/08 00:56:31;;;;;;;11.27;8.70;;;10.70;99.90;;;;;;5051821;28;20025;-72
2023/06/08 00:59:02;;;;;;;13.73;9.50;;;10.70;99.90;;;;;;5051578;28;20324;-72
2023/06/08 01:01:29;;;;;;;14.65;9.40;;;10.70;99.90;;;;;;5051552;28;20363;-71
2023/06/08 01:04:16;;;;;;;13.07;8.80;;;10.70;99.90;;;;;;5051532;28;20100;-71
2023/06/08 01:06:46;;;;;;;13.38;9.43;;;10.70;99.90;;;;;;5051586;28;20463;-72
2023/06/08 01:09:23;;;;;;;11.30;9.23;;;10.70;99.90;;;;;;5051570;28;20108;-70
2023/06/08 01:12:10;;;;;;;13.63;9.25;;;10.70;99.90;;;;;;5051074;28;20048;-72
2023/06/08 01:14:59;;;;;;;12.63;9.48;;;10.60;99.90;;;;;;5051800;28;20025;-71
2023/06/08 01:17:36;;;;;;;11.80;8.35;;;10.70;99.90;;;;;;5051742;28;20024;-70
2023/06/08 01:20:18;;;;;;;11.40;8.45;;;10.70;99.90;;;;;;5050555;28;20025;-70
2023/06/08 01:22:59;;;;;;;10.90;8.55;;;10.70;99.90;;;;;;5051410;28;20025;-73
2023/06/08 01:25:31;;;;;;;9.57;8.57;;;10.60;99.90;;;;;;5051121;28;20506;-70
2023/06/08 01:28:12;;;;;;;11.80;9.00;;;10.60;99.90;;;;;;5050917;28;20048;-70
2023/06/08 01:30:46;;;;;;;12.10;8.32;;;10.60;99.90;;;;;;5051336;28;20266;-70
2023/06/08 01:33:16;;;;;;;12.65;9.70;;;10.50;99.90;;;;;;5051066;28;20095;-70
2023/06/08 01:35:46;;;;;;;13.05;9.63;;;10.50;99.90;;;;;;5051182;28;20040;-71
2023/06/08 01:38:23;;;;;;;12.52;9.20;;;10.50;99.90;;;;;;5051226;28;20025;-70
2023/06/08 01:40:54;;;;;;;11.88;8.20;;;10.50;99.90;;;;;;5050409;28;20056;-70
2023/06/08 01:43:22;;;;;;;12.35;9.23;;;10.50;99.90;;;;;;5049394;28;20021;-70
2023/06/08 01:45:51;;;;;;;11.10;9.85;;;10.50;99.90;;;;;;5050388;28;20111;-73
2023/06/08 01:48:21;;;;;;;13.52;9.40;;;10.50;99.90;;;;;;5051279;28;20029;-70
2023/06/08 01:50:49;;;;;;;14.43;9.80;;;10.60;99.90;;;;;;5050851;28;20453;-72
2023/06/08 01:53:16;;;;;;;12.85;9.82;;;10.50;99.90;;;;;;5049923;28;20029;-70
2023/06/08 01:55:42;;;;;;;12.32;9.82;;;10.50;99.90;;;;;;5050861;28;20541;-70
2023/06/08 01:58:08;;;;;;;18.33;10.70;;;10.60;99.90;;;;;;5050465;28;20056;-70
2023/06/08 02:00:33;;;;;;;17.10;12.68;;;10.60;99.90;;;;;;5049568;28;20446;-70
2023/06/08 02:02:59;;;;;;;24.33;13.80;;;10.70;99.90;;;;;;5050718;28;20091;-70
2023/06/08 02:05:25;;;;;;;22.75;14.30;;;10.90;99.90;;;;;;5050906;28;20069;-70
2023/06/08 02:07:51;;;;;;;21.65;13.85;;;10.90;99.90;;;;;;5050140;28;20450;-71
2023/06/08 02:10:17;;;;;;;24.92;15.40;;;11.00;99.90;;;;;;5050821;28;20048;-70
2023/06/08 02:12:42;;;;;;;26.77;15.02;;;11.10;99.90;;;;;;5049301;28;20346;-70
2023/06/08 02:15:09;;;;;;;24.10;16.92;;;11.10;99.90;;;;;;5050300;28;20033;-70
2023/06/08 02:17:35;;;;;;;30.23;17.25;;;11.20;99.90;;;;;;5050776;28;20021;-70
2023/06/08 02:20:06;;;;;;;32.95;17.98;;;11.30;99.90;;;;;;5049495;28;20450;-70
2023/06/08 02:22:33;;;;;;;32.42;17.65;;;11.40;99.90;;;;;;5050668;28;20068;-70
2023/06/08 02:24:59;;;;;;;34.72;17.75;;;11.50;99.90;;;;;;5049812;28;20386;-70
2023/06/08 02:27:25;;;;;;;27.17;17.63;;;11.60;99.90;;;;;;5050642;28;20061;-70
2023/06/08 02:29:51;;;;;;;31.98;16.98;;;11.60;99.90;;;;;;5049977;28;20035;-71
2023/06/08 02:32:17;;;;;;;29.70;16.30;;;11.70;99.90;;;;;;5049981;28;20021;-70
2023/06/08 02:34:55;;;;;;;29.50;15.25;;;11.80;99.90;;;;;;5050100;28;20052;-70
2023/06/08 02:37:22;;;;;;;32.47;14.07;;;11.80;99.90;;;;;;5050107;28;20037;-70
2023/06/08 02:39:48;;;;;;;32.42;13.80;;;11.90;99.90;;;;;;5050286;28;20029;-70
2023/06/08 02:42:14;;;;;;;30.27;12.82;;;12.00;99.90;;;;;;5049589;28;20407;-70
2023/06/08 02:44:40;;;;;;;24.30;12.52;;;12.00;99.90;;;;;;5048679;28;20043;-70
2023/06/08 02:47:06;;;;;;;24.15;11.57;;;12.00;99.90;;;;;;5049656;28;20442;-70
2023/06/08 02:49:31;;;;;;;34.08;12.45;;;12.10;99.90;;;;;;5049811;28;20029;-71
2023/06/08 02:51:57;;;;;;;24.50;11.43;;;12.10;99.90;;;;;;5049479;28;20035;-71
2023/06/08 02:54:23;;;;;;;25.83;10.40;;;12.10;99.90;;;;;;5050122;28;20032;-70
2023/06/08 02:56:48;;;;;;;31.33;10.13;;;12.10;99.90;;;;;;5050011;28;20053;-70
2023/06/08 02:59:14;;;;;;;25.80;11.10;;;12.10;99.90;;;;;;5049557;28;20441;-70
2023/06/08 03:01:51;;;;;;;24.45;9.80;;;12.20;99.90;;;;;;5049651;28;20037;-70
2023/06/08 03:04:18;;;;;;;26.90;10.07;;;12.20;99.90;;;;;;5048118;28;20029;-70
2023/06/08 03:06:44;;;;;;;22.92;10.02;;;12.20;99.90;;;;;;5049650;28;20033;-70
2023/06/08 03:09:09;;;;;;;24.08;10.43;;;12.20;99.90;;;;;;5049196;28;20493;-70
2023/06/08 03:11:35;;;;;;;24.00;9.93;;;12.10;99.90;;;;;;5049652;28;20053;-70
2023/06/08 03:14:03;;;;;;;23.48;9.35;;;12.20;99.90;;;;;;5047611;28;20032;-71
2023/06/08 03:16:28;;;;;;;17.88;8.90;;;12.20;99.90;;;;;;5049351;28;20339;-70
2023/06/08 03:18:56;;;;;;;22.50;8.88;;;12.10;99.90;;;;;;5049230;28;20025;-71
2023/06/08 03:21:28;;;;;;;23.67;8.93;;;12.20;99.90;;;;;;5049696;28;20517;-71
2023/06/08 03:23:54;;;;;;;23.38;8.45;;;12.10;99.90;;;;;;5049834;28;20346;-73
2023/06/08 03:26:21;;;;;;;22.77;9.20;;;12.10;99.90;;;;;;5049479;28;20513;-70
2023/06/08 03:28:47;;;;;;;21.10;9.68;;;12.10;99.90;;;;;;5049649;28;20138;-70
2023/06/08 03:31:13;;;;;;;25.55;9.15;;;12.10;99.90;;;;;;5049197;28;20465;-70
2023/06/08 03:33:40;;;;;;;23.30;9.50;;;12.20;99.90;;;;;;5049603;28;20074;-70
2023/06/08 03:36:06;;;;;;;27.00;10.20;;;12.20;99.90;;;;;;5049076;28;20467;-70
2023/06/08 03:38:33;;;;;;;19.33;9.55;;;12.20;99.90;;;;;;5049313;28;20490;-71
2023/06/08 03:40:58;;;;;;;27.20;9.05;;;12.20;99.90;;;;;;5049546;28;20045;-71
2023/06/08 03:43:24;;;;;;;22.90;9.05;;;12.30;99.90;;;;;;5049466;28;20071;-70
2023/06/08 03:45:50;;;;;;;27.08;9.70;;;12.30;99.90;;;;;;5053295;28;20041;-71
2023/06/08 03:48:16;;;;;;;29.02;9.52;;;12.30;99.90;;;;;;5053095;28;20043;-71
2023/06/08 03:50:43;;;;;;;22.85;9.63;;;12.30;99.90;;;;;;5053262;28;20029;-70
2023/06/08 03:53:12;;;;;;;23.13;10.43;;;12.30;99.90;;;;;;5052874;28;20056;-70
2023/06/08 03:55:38;;;;;;;24.40;9.23;;;12.30;99.90;;;;;;5053154;28;20025;-70
2023/06/08 03:58:04;;;;;;;18.25;8.85;;;12.30;99.90;;;;;;5052353;28;20108;-71
2023/06/08 04:00:29;;;;;;;19.35;9.10;;;12.40;99.90;;;;;;5053038;28;20128;-71
2023/06/08 04:02:58;;;;;;;22.52;8.77;;;12.40;99.90;;;;;;5052427;28;20029;-73
2023/06/08 04:05:24;;;;;;;21.42;8.77;;;12.40;99.90;;;;;;5052775;28;20124;-70
2023/06/08 04:07:53;;;;;;;23.55;10.07;;;12.40;99.90;;;;;;5053036;28;20169;-70
2023/06/08 04:10:19;;;;;;;23.83;9.02;;;12.30;99.90;;;;;;5052261;28;20029;-70
2023/06/08 04:12:44;;;;;;;17.25;8.18;;;12.30;99.90;;;;;;5053027;28;20025;-70
2023/06/08 04:15:13;;;;;;;24.98;8.85;;;12.30;99.90;;;;;;5052338;28;20040;-71
2023/06/08 04:17:43;;;;;;;24.08;8.50;;;12.30;99.90;;;;;;5053105;28;20028;-70
2023/06/08 04:20:11;;;;;;;19.42;8.25;;;12.30;99.90;;;;;;5052299;28;20033;-71
2023/06/08 04:22:37;;;;;;;20.58;9.20;;;12.30;99.90;;;;;;5052979;28;20029;-70
2023/06/08 04:25:04;;;;;;;25.35;9.30;;;12.40;99.90;;;;;;5052601;28;20079;-71
2023/06/08 04:27:30;;;;;;;29.95;8.88;;;12.40;99.90;;;;;;5052851;28;20514;-71
2023/06/08 04:29:57;;;;;;;23.67;8.70;;;12.40;99.90;;;;;;5052757;28;20060;-72
2023/06/08 04:32:23;;;;;;;21.77;9.65;;;12.40;99.90;;;;;;5052948;28;20025;-71
2023/06/08 04:34:49;;;;;;;17.08;7.85;;;12.40;99.90;;;;;;5052931;28;20029;-70
2023/06/08 04:37:15;;;;;;;26.80;8.80;;;12.40;99.90;;;;;;5052209;28;20107;-71
2023/06/08 04:39:41;;;;;;;24.15;8.70;;;12.50;99.90;;;;;;5051148;28;20086;-71
2023/06/08 04:42:08;;;;;;;19.00;8.13;;;12.50;99.90;;;;;;5052147;28;20474;-71
2023/06/08 04:44:34;;;;;;;20.38;8.10;;;12.50;99.90;;;;;;5050813;28;20041;-71
2023/06/08 04:47:01;;;;;;;17.15;7.82;;;12.60;99.90;;;;;;5051449;28;20253;-71
2023/06/08 04:49:36;;;;;;;19.95;8.18;;;12.60;99.90;;;;;;5052097;28;20402;-71
2023/06/08 04:52:02;;;;;;;23.23;8.13;;;12.70;99.90;;;;;;5052012;28;20028;-71
2023/06/08 04:54:28;;;;;;;17.55;7.03;;;12.70;99.90;;;;;;5050981;28;20029;-71
2023/06/08 04:56:58;;;;;;;19.83;8.25;;;12.70;99.90;;;;;;5050721;28;20060;-71
2023/06/08 04:59:25;;;;;;;21.33;8.20;;;12.80;99.90;;;;;;5051682;28;20021;-70
2023/06/08 05:01:51;;;;;;;20.80;7.40;;;12.90;99.90;;;;;;5051790;28;20029;-71
2023/06/08 05:04:17;;;;;;;18.00;7.47;;;12.90;99.90;;;;;;5051424;28;20025;-71
2023/06/08 05:06:43;;;;;;;14.75;6.43;;;12.90;99.90;;;;;;5050522;28;20191;-70
2023/06/08 05:09:08;;;;;;;17.45;7.15;;;13.00;99.90;;;;;;5051015;28;20036;-71
2023/06/08 05:11:34;;;;;;;16.77;7.10;;;13.00;99.90;;;;;;5052021;28;20028;-71
2023/06/08 05:14:00;;;;;;;18.13;6.80;;;13.00;99.90;;;;;;5051525;28;20451;-73
2023/06/08 05:16:25;;;;;;;15.18;7.30;;;13.00;99.90;;;;;;5052048;28;20183;-70
2023/06/08 05:18:51;;;;;;;20.77;7.70;;;13.00;99.90;;;;;;5051837;28;20025;-71
2023/06/08 05:21:17;;;;;;;22.88;7.55;;;13.00;99.90;;;;;;5051365;28;20025;-71
2023/06/08 05:23:43;;;;;;;18.88;7.18;;;13.00;99.90;;;;;;5052356;28;20033;-71
2023/06/08 05:26:08;;;;;;;13.07;6.50;;;13.00;99.90;;;;;;5050835;28;20151;-71
2023/06/08 05:28:34;;;;;;;19.55;6.90;;;13.00;99.90;;;;;;5051954;28;20044;-71
2023/06/08 05:31:00;;;;;;;19.33;7.32;;;12.90;99.90;;;;;;5051685;28;20033;-73
2023/06/08 05:33:26;;;;;;;13.82;6.40;;;12.90;99.90;;;;;;5051731;28;20064;-70
2023/06/08 05:35:52;;;;;;;16.50;7.38;;;12.90;99.90;;;;;;5051695;28;20056;-70
2023/06/08 05:38:19;;;;;;;16.15;7.53;;;12.90;99.90;;;;;;5051086;28;20032;-71
2023/06/08 05:40:45;;;;;;;17.35;7.45;;;13.00;99.90;;;;;;5051402;28;20078;-69
2023/06/08 05:43:11;;;;;;;18.92;7.43;;;13.10;99.90;;;;;;5050629;28;20103;-71
2023/06/08 05:45:37;;;;;;;21.88;8.20;;;13.10;99.90;;;;;;5051285;28;20029;-71
2023/06/08 05:48:03;;;;;;;18.90;7.38;;;13.20;99.90;;;;;;5050761;28;20037;-72
2023/06/08 05:50:29;;;;;;;14.43;7.28;;;13.20;99.90;;;;;;5051299;28;20032;-70
2023/06/08 05:52:55;;;;;;;16.67;7.35;;;13.20;99.90;;;;;;5051172;28;20412;-69
2023/06/08 05:55:20;;;;;;;26.95;8.13;;;13.30;99.90;;;;;;5050357;28;20048;-70
2023/06/08 05:57:46;;;;;;;17.23;7.20;;;13.30;99.90;;;;;;5050873;28;20040;-70
2023/06/08 06:00:12;;;;;;;17.83;7.93;;;13.30;99.90;;;;;;5050348;28;20199;-70
2023/06/08 06:02:39;;;;;;;18.80;7.57;;;13.20;99.90;;;;;;5051060;28;20024;-70
2023/06/08 06:05:08;;;;;;;18.88;7.47;;;13.20;99.90;;;;;;5050272;28;20033;-71
2023/06/08 06:07:35;;;;;;;15.45;8.32;;;13.20;99.90;;;;;;5050349;28;20025;-70
2023/06/08 06:10:01;;;;;;;22.00;8.02;;;13.20;99.90;;;;;;5050519;28;20029;-70
2023/06/08 06:12:27;;;;;;;26.38;9.57;;;13.20;99.90;;;;;;5050294;28;20071;-70
2023/06/08 06:14:55;;;;;;;15.13;8.27;;;13.20;99.90;;;;;;5050305;28;20054;-70
2023/06/08 06:17:21;;;;;;;19.83;9.30;;;13.10;99.90;;;;;;5050077;28;20116;-70
2023/06/08 06:19:47;;;;;;;17.52;9.18;;;13.20;99.90;;;;;;5048933;28;20368;-70
2023/06/08 06:22:13;;;;;;;20.25;8.95;;;13.10;99.90;;;;;;5050016;28;20032;-70
2023/06/08 06:24:39;;;;;;;22.33;9.48;;;13.10;99.90;;;;;;5050914;28;20029;-69
2023/06/08 06:27:06;;;;;;;17.33;9.70;;;13.20;99.90;;;;;;5050479;28;20482;-73
2023/06/08 06:29:31;;;;;;;21.48;8.48;;;13.30;99.90;;;;;;5050472;28;20087;-71
2023/06/08 06:31:57;;;;;;;16.65;8.57;;;13.30;99.90;;;;;;5050835;28;20126;-71
2023/06/08 06:34:23;;;;;;;21.30;8.70;;;13.30;99.90;;;;;;5049941;28;20025;-71
2023/06/08 06:36:49;;;;;;;15.52;8.23;;;13.40;99.90;;;;;;5050584;28;20021;-69
2023/06/08 06:39:15;;;;;;;18.15;8.60;;;13.40;99.90;;;;;;5050194;28;20504;-70
2023/06/08 06:41:41;;;;;;;15.65;8.60;;;13.40;99.90;;;;;;5050247;28;20102;-70
2023/06/08 06:44:08;;;;;;;11.38;7.50;;;13.50;99.90;;;;;;5049654;28;20025;-70
2023/06/08 06:46:34;;;;;;;13.02;7.63;;;13.50;99.90;;;;;;5050121;28;20036;-69
2023/06/08 06:49:00;;;;;;;16.10;7.78;;;13.50;99.90;;;;;;5049869;28;20021;-69
2023/06/08 06:51:25;;;;;;;15.05;7.88;;;13.50;99.90;;;;;;5049355;28;20025;-69
2023/06/08 06:53:51;;;;;;;16.67;8.30;;;13.40;99.90;;;;;;5050030;28;20123;-70
2023/06/08 06:56:17;;;;;;;15.85;8.10;;;13.40;99.90;;;;;;5049084;28;20108;-70
2023/06/08 06:58:44;;;;;;;16.98;7.88;;;13.50;99.90;;;;;;5049994;28;20025;-70
2023/06/08 07:01:15;;;;;;;18.13;8.27;;;13.60;99.90;;;;;;5049509;28;20021;-71
2023/06/08 07:03:46;;;;;;;15.65;8.55;;;13.70;99.90;;;;;;5050163;28;20056;-71
2023/06/08 07:06:15;;;;;;;16.77;9.00;;;13.70;99.90;;;;;;5049356;28;20037;-70
2023/06/08 07:08:41;;;;;;;17.33;8.73;;;13.70;99.90;;;;;;5050101;28;20028;-70
2023/06/08 07:11:07;;;;;;;18.75;8.88;;;13.70;99.90;;;;;;5049369;28;20067;-73
2023/06/08 07:13:33;;;;;;;18.52;8.25;;;13.60;99.90;;;;;;5050118;28;20033;-71
2023/06/08 07:15:59;;;;;;;13.68;8.52;;;13.60;99.90;;;;;;5049688;28;20032;-70
2023/06/08 07:18:24;;;;;;;15.38;7.60;;;13.60;99.90;;;;;;5048224;28;20436;-70
2023/06/08 07:20:51;;;;;;;17.10;7.70;;;13.50;99.90;;;;;;5052642;28;20032;-70
2023/06/08 07:23:16;;;;;;;18.77;7.78;;;13.50;99.90;;;;;;5053813;28;20090;-70
2023/06/08 07:25:42;;;;;;;16.27;8.25;;;13.60;99.90;;;;;;5053660;28;20049;-70
2023/06/08 07:28:09;;;;;;;19.20;8.20;;;13.50;99.90;;;;;;5053520;28;20021;-72
2023/06/08 07:30:35;;;;;;;15.05;8.00;;;13.50;99.90;;;;;;5054169;28;20025;-70
2023/06/08 07:33:03;;;;;;;12.15;7.35;;;13.60;99.90;;;;;;5053650;28;20115;-70
2023/06/08 07:35:29;;;;;;;20.33;6.97;;;13.50;99.90;;;;;;5052964;28;20035;-70
2023/06/08 07:37:55;;;;;;;13.68;7.35;;;13.40;99.90;;;;;;5053640;28;20029;-70
2023/06/08 07:40:21;;;;;;;16.15;8.00;;;13.50;99.90;;;;;;5053078;28;20043;-70
2023/06/08 07:42:46;;;;;;;15.25;8.30;;;13.40;99.90;;;;;;5053608;28;20035;-70
2023/06/08 07:45:13;;;;;;;13.43;7.82;;;13.50;99.90;;;;;;5052885;28;20070;-70
2023/06/08 07:47:40;;;;;;;10.52;7.40;;;13.50;99.90;;;;;;5053377;28;20044;-69
2023/06/08 07:50:10;;;;;;;17.35;8.48;;;13.50;99.90;;;;;;5053390;28;20021;-70
2023/06/08 07:52:36;;;;;;;19.55;8.38;;;13.40;99.90;;;;;;5053018;28;20029;-70
2023/06/08 07:55:04;;;;;;;18.65;8.77;;;13.30;99.90;;;;;;5052968;28;20029;-70
2023/06/08 07:57:31;;;;;;;18.85;9.00;;;13.30;99.90;;;;;;5052600;28;20638;-70
2023/06/08 07:59:57;;;;;;;14.07;8.48;;;13.40;99.90;;;;;;5053240;28;20036;-70
2023/06/08 08:02:22;;;;;;;18.67;9.88;;;13.40;99.90;;;;;;5052827;28;20426;-70
2023/06/08 08:04:48;;;;;;;15.40;9.13;;;13.40;99.90;;;;;;5052976;28;20025;-70
2023/06/08 08:07:14;;;;;;;19.20;9.80;;;13.50;99.90;;;;;;5052262;28;20029;-70
2023/06/08 08:09:41;;;;;;;14.98;10.15;;;13.40;99.90;;;;;;5053075;28;20036;-71
2023/06/08 08:12:09;;;;;;;20.90;9.27;;;13.50;99.90;;;;;;5053154;28;20083;-72
2023/06/08 08:14:35;;;;;;;15.63;9.65;;;13.60;99.90;;;;;;5052533;28;20033;-70
2023/06/08 08:17:00;;;;;;;16.17;9.35;;;13.70;99.90;;;;;;5052799;28;20473;-69
2023/06/08 08:19:26;;;;;;;13.70;9.18;;;13.70;99.90;;;;;;5052561;28;20098;-70
2023/06/08 08:21:52;;;;;;;14.35;7.80;;;13.80;99.90;;;;;;5052090;28;20471;-70
2023/06/08 08:24:18;;;;;;;15.35;7.90;;;13.80;99.90;;;;;;5052422;28;20045;-70
2023/06/08 08:26:44;;;;;;;13.18;7.90;;;13.90;99.90;;;;;;5051029;28;20208;-70
2023/06/08 08:29:09;;;;;;;13.20;7.70;;;13.90;99.90;;;;;;5052408;28;20119;-70
2023/06/08 08:31:35;;;;;;;13.63;7.60;;;13.90;99.90;;;;;;5051677;28;20021;-70
2023/06/08 08:34:02;;;;;;;11.23;7.45;;;13.90;99.90;;;;;;5052676;28;20025;-70
2023/06/08 08:36:28;;;;;;;19.38;7.82;;;13.70;99.90;;;;;;5051898;28;20029;-70
2023/06/08 08:38:54;;;;;;;14.02;7.57;;;13.70;99.90;;;;;;5052686;28;20032;-70
2023/06/08 08:41:21;;;;;;;15.85;8.02;;;13.70;99.90;;;;;;5051528;28;20048;-70
2023/06/08 08:43:56;;;;;;;15.95;8.05;;;13.70;99.90;;;;;;5050805;28;20021;-70
2023/06/08 08:46:23;;;;;;;10.85;7.80;;;13.70;99.90;;;;;;5051797;28;20127;-70
2023/06/08 08:48:53;;;;;;;11.65;7.65;;;13.60;99.90;;;;;;5052303;28;20029;-70
2023/06/08 08:51:19;;;;;;;11.57;8.10;;;13.60;99.90;;;;;;5051666;28;20025;-71
2023/06/08 08:53:48;;;;;;;16.90;8.20;;;13.70;99.90;;;;;;5052158;28;20029;-70
2023/06/08 08:56:30;;;;;;;10.93;7.63;;;13.80;99.90;;;;;;5051950;28;20107;-73
2023/06/08 08:58:57;;;;;;;19.83;8.80;;;13.70;99.90;;;;;;5051994;28;20033;-70
2023/06/08 09:01:25;;;;;;;11.57;8.05;;;13.80;99.90;;;;;;5051633;28;20458;-70
2023/06/08 09:03:50;;;;;;;11.10;8.85;;;13.70;99.90;;;;;;5051946;28;20033;-70
2023/06/08 09:06:16;;;;;;;14.75;8.30;;;13.70;99.90;;;;;;5051325;28;20107;-74
2023/06/08 09:08:42;;;;;;;15.73;8.60;;;13.80;99.90;;;;;;5051775;28;20033;-70
2023/06/08 09:11:10;;;;;;;14.30;8.65;;;13.80;99.90;;;;;;5050405;28;20438;-70
2023/06/08 09:13:37;;;;;;;16.58;8.90;;;13.80;99.90;;;;;;5051066;28;20113;-70
2023/06/08 09:16:19;;;;;;;18.13;9.05;;;13.90;99.90;;;;;;5052316;28;20080;-70
2023/06/08 09:18:47;;;;;;;10.82;8.38;;;13.90;99.90;;;;;;5052110;28;20514;-71
2023/06/08 09:21:21;;;;;;;14.55;8.75;;;14.10;99.90;;;;;;5051390;28;20033;-71
2023/06/08 09:24:16;;;;;;;12.43;9.18;;;14.20;99.90;;;;;;5051612;28;20025;-71
2023/06/08 09:26:59;;;;;;;17.60;8.82;;;14.20;99.90;;;;;;5051859;28;20132;-70
2023/06/08 09:29:36;;;;;;;;;;;14.00;99.90;;;;;;5051462;28;20029;-71
2023/06/08 09:32:03;;;;;;;13.52;8.77;;;14.00;99.90;;;;;;5050886;28;19931;-71
2023/06/08 09:34:34;;;;;;;12.75;9.07;;;14.00;99.90;;;;;;5050855;28;20025;-70
2023/06/08 09:37:10;;;;;;;14.43;9.70;;;14.10;99.90;;;;;;5051114;28;20020;-70
2023/06/08 09:39:43;;;;;;;16.05;9.52;;;14.20;99.90;;;;;;5051077;28;20089;-70
2023/06/08 09:42:10;;;;;;;15.30;10.63;;;14.10;99.90;;;;;;5050273;28;20032;-71
2023/06/08 09:44:36;;;;;;;15.07;11.43;;;14.10;99.90;;;;;;5050754;28;20040;-70
2023/06/08 09:47:28;;;;;;;17.40;10.80;;;13.80;99.90;;;;;;5051033;28;20426;-71
2023/06/08 09:49:55;;;;;;;19.92;12.02;;;13.60;99.90;;;;;;5047356;28;20043;-70
2023/06/08 09:52:23;;;;;;;18.23;12.32;;;13.50;99.90;;;;;;5050526;28;20167;-71
2023/06/08 09:54:51;;;;;;;16.80;11.95;;;13.40;99.90;;;;;;5050894;28;20036;-70
2023/06/08 09:57:20;;;;;;;18.67;12.50;;;13.30;99.90;;;;;;5050780;28;20098;-73
2023/06/08 09:59:50;;;;;;;15.45;11.80;;;13.40;99.90;;;;;;5050935;28;20017;-70
2023/06/08 10:02:32;;;;;;;18.60;11.77;;;13.60;99.90;;;;;;5050855;28;20025;-70
2023/06/08 10:05:06;;;;;;;20.25;13.05;;;13.80;99.90;;;;;;5049501;28;20128;-70
2023/06/08 10:07:35;;;;;;;15.27;12.13;;;13.70;99.90;;;;;;5050326;28;20033;-71
2023/06/08 10:10:13;;;;;;;19.23;12.93;;;13.60;99.90;;;;;;5050715;28;20071;-71
2023/06/08 10:12:40;;;;;;;20.27;12.25;;;13.70;99.90;;;;;;5049990;28;20583;-71
2023/06/08 10:15:07;;;;;;;21.33;13.60;;;13.70;99.90;;;;;;5050765;28;20025;-70
2023/06/08 10:17:34;;;;;;;16.67;13.13;;;13.70;99.90;;;;;;5048782;28;20025;-71
2023/06/08 10:19:59;;;;;;;23.17;13.93;;;13.90;99.90;;;;;;5049002;28;20029;-71
2023/06/08 10:22:26;;;;;;;20.65;13.25;;;13.90;99.90;;;;;;5048541;28;20036;-71
2023/06/08 10:24:52;;;;;;;17.90;13.48;;;13.70;99.90;;;;;;5050416;28;20520;-70
2023/06/08 10:27:33;;;;;;;16.38;13.13;;;13.70;99.90;;;;;;5050325;28;20071;-72
2023/06/08 10:30:04;;;;;;;15.90;13.45;;;13.60;99.90;;;;;;5050548;28;20490;-71
2023/06/08 10:32:36;;;;;;;21.83;13.52;;;13.60;99.90;;;;;;5049794;28;20029;-70
2023/06/08 10:35:04;;;;;;;19.48;13.20;;;13.50;99.90;;;;;;5048754;28;20033;-70
2023/06/08 10:37:31;;;;;;;19.60;12.77;;;13.30;99.90;;;;;;5049658;28;20025;-70
2023/06/08 10:39:59;;;;;;;18.70;12.98;;;13.40;99.90;;;;;;5049922;28;20149;-71
2023/06/08 10:42:25;;;;;;;15.57;12.55;;;13.50;99.90;;;;;;5048047;28;20501;-71
2023/06/08 10:44:55;;;;;;;19.80;12.73;;;13.50;99.90;;;;;;5049831;28;20087;-70
2023/06/08 10:47:21;;;;;;;19.70;12.50;;;13.60;99.90;;;;;;5049776;28;20025;-73
2023/06/08 10:50:01;;;;;;;18.52;10.63;;;13.60;99.90;;;;;;5049620;28;20083;-70
2023/06/08 10:52:27;;;;;;;16.65;10.77;;;13.50;99.90;;;;;;5049462;28;20029;-71
2023/06/08 10:55:09;;;;;;;17.80;9.77;;;13.50;99.90;;;;;;5049865;28;20032;-70
2023/06/08 10:57:37;;;;;;;13.68;9.93;;;13.50;99.90;;;;;;5049283;28;20025;-71
2023/06/08 11:00:23;;;;;;;12.60;9.73;;;13.70;99.90;;;;;;5049877;28;20108;-71
2023/06/08 11:02:49;;;;;;;15.57;8.57;;;13.90;99.90;;;;;;5049632;28;20074;-71
2023/06/08 11:05:16;;;;;;;18.38;9.68;;;13.90;99.90;;;;;;5049275;28;20036;-71
2023/06/08 11:07:42;;;;;;;16.60;10.00;;;14.00;99.90;;;;;;5048970;28;20602;-71
2023/06/08 11:10:08;;;;;;;14.38;9.70;;;14.00;99.90;;;;;;5049724;28;20059;-71
2023/06/08 11:12:34;;;;;;;17.67;9.85;;;14.00;99.90;;;;;;5049424;28;20021;-71
2023/06/08 11:15:00;;;;;;;13.68;10.07;;;14.10;99.90;;;;;;5049758;28;20036;-70
2023/06/08 11:17:26;;;;;;;15.43;10.05;;;14.20;99.90;;;;;;5049599;28;20461;-71
2023/06/08 11:19:52;;;;;;;13.15;10.68;;;14.10;99.90;;;;;;5048239;28;20025;-70
2023/06/08 11:22:18;;;;;;;15.68;9.30;;;14.10;99.90;;;;;;5049499;28;20036;-71
2023/06/08 11:24:44;;;;;;;17.40;10.93;;;14.00;99.90;;;;;;5049321;28;20058;-70
2023/06/08 11:27:17;;;;;;;19.17;11.18;;;13.80;99.90;;;;;;5049618;28;20135;-71
2023/06/08 11:29:46;;;;;;;16.63;11.55;;;13.90;99.90;;;;;;5048784;28;20612;-71
2023/06/08 11:32:15;;;;;;;18.95;11.10;;;13.90;99.90;;;;;;5049963;28;20029;-70
2023/06/08 11:34:45;;;;;;;16.63;10.90;;;13.90;99.90;;;;;;5049130;28;20029;-71
2023/06/08 11:37:16;;;;;;;17.63;12.20;;;13.90;99.90;;;;;;5049715;28;20040;-71
2023/06/08 11:39:46;;;;;;;19.90;11.75;;;13.90;99.90;;;;;;5048997;28;20410;-71
2023/06/08 11:42:12;;;;;;;15.88;12.00;;;13.90;99.90;;;;;;5049719;28;20033;-71
2023/06/08 11:44:38;;;;;;;17.73;12.38;;;13.80;99.90;;;;;;5048714;28;20211;-71
2023/06/08 11:47:08;;;;;;;18.20;12.68;;;13.90;99.90;;;;;;5049751;28;20120;-71
2023/06/08 11:49:52;;;;;;;26.33;12.35;;;14.00;99.90;;;;;;5048289;28;20075;-71
2023/06/08 11:52:18;;;;;;;21.50;14.13;;;14.00;99.90;;;;;;5049471;28;20025;-71
2023/06/08 11:54:44;;;;;;;17.85;13.50;;;14.10;99.90;;;;;;5048761;28;20591;-71
2023/06/08 11:57:10;;;;;;;19.25;13.57;;;14.10;99.90;;;;;;5049453;28;20381;-71
2023/06/08 11:59:36;;;;;;;18.02;13.63;;;13.90;99.90;;;;;;5048888;28;20035;-71
2023/06/08 12:02:10;;;;;;;20.35;13.20;;;14.00;99.90;;;;;;5049060;28;20024;-71
2023/06/08 12:04:36;;;;;;;18.33;13.23;;;14.10;99.90;;;;;;5048806;28;20021;-71
2023/06/08 12:07:11;;;;;;;15.90;13.10;;;14.00;99.90;;;;;;5053181;28;20408;-71
2023/06/08 12:09:38;;;;;;;21.13;14.32;;;14.10;99.90;;;;;;5052513;28;20036;-71
2023/06/08 12:12:11;;;;;;;18.90;14.00;;;14.20;99.90;;;;;;5052954;28;20021;-71
2023/06/08 12:14:44;;;;;;;16.65;13.48;;;14.20;99.90;;;;;;5052085;28;20328;-71
2023/06/08 12:17:14;;;;;;;18.63;14.00;;;14.20;99.90;;;;;;5053062;28;20025;-71
2023/06/08 12:19:46;;;;;;;17.85;13.85;;;14.30;99.90;;;;;;5052183;28;20021;-71
2023/06/08 12:22:13;;;;;;;19.38;13.45;;;14.30;99.90;;;;;;5052446;28;20438;-71
2023/06/08 12:24:39;;;;;;;21.38;14.93;;;14.20;99.90;;;;;;5052411;28;20041;-71
2023/06/08 12:27:09;;;;;;;18.50;14.73;;;14.30;99.90;;;;;;5052246;28;20086;-71
2023/06/08 12:29:36;;;;;;;21.73;15.25;;;14.20;99.90;;;;;;5050464;28;20021;-71
2023/06/08 12:32:05;;;;;;;22.50;14.93;;;14.20;99.90;;;;;;5052444;28;20363;-71
2023/06/08 12:34:32;;;;;;;23.63;15.23;;;14.30;99.90;;;;;;5052046;28;20029;-72
2023/06/08 12:36:58;;;;;;;19.70;14.85;;;14.50;99.90;;;;;;5053028;28;20029;-70